sensor_id;sensor_type;location;lat;lon;timestamp;temperature;humidity
20560;DHT22;10438;51.454;6.718;2022-07-17T00:00:36;16.00;99.90
20560;DHT22;10438;51.454;6.718;2022-07-17T00:03:05;15.90;99.90
20560;DHT22;10438;51.454;6.718;2022-07-17T00:05:31;16.00;99.90
20560;DHT22;10438;51.454;6.718;2022-07-17T00:07:56;15.90;99.90
20560;DHT22;10438;51.454;6.718;2022-07-17T00:10:22;15.90;99.90
20560;DHT22;10438;51.454;6.718;2022-07-17T00:12:47;15.90;99.90
20560;DHT22;10438;51.454;6.718;2022-07-17T00:15:13;15.90;99.90
20560;DHT22;10438;51.454;6.718;2022-07-17T00:17:38;15.90;99.90
20560;DHT22;10438;51.454;6.718;2022-07-17T00:20:04;15.90;99.90
20560;DHT22;10438;51.454;6.718;2022-07-17T00:22:30;15.90;99.90
20560;DHT22;10438;51.454;6.718;2022-07-17T00:24:56;15.80;99.90
20560;DHT22;10438;51.454;6.718;2022-07-17T00:27:21;15.90;99.90
20560;DHT22;10438;51.454;6.718;2022-07-17T00:29:47;15.80;99.90
20560;DHT22;10438;51.454;6.718;2022-07-17T00:32:12;15.80;99.90
20560;DHT22;10438;51.454;6.718;2022-07-17T00:34:38;15.70;99.90
20560;DHT22;10438;51.454;6.718;2022-07-17T00:37:03;15.70;99.90
20560;DHT22;10438;51.454;6.718;2022-07-17T00:39:29;15.70;99.90
20560;DHT22;10438;51.454;6.718;2022-07-17T00:41:54;15.70;99.90
20560;DHT22;10438;51.454;6.718;2022-07-17T00:44:20;15.60;99.90
20560;DHT22;10438;51.454;6.718;2022-07-17T00:46:45;15.60;99.90
20560;DHT22;10438;51.454;6.718;2022-07-17T00:49:11;15.50;99.90
20560;DHT22;10438;51.454;6.718;2022-07-17T00:51:36;15.50;99.90
20560;DHT22;10438;51.454;6.718;2022-07-17T00:54:03;15.50;99.90
20560;DHT22;10438;51.454;6.718;2022-07-17T00:56:30;15.50;99.90
20560;DHT22;10438;51.454;6.718;2022-07-17T00:58:56;15.40;99.90
20560;DHT22;10438;51.454;6.718;2022-07-17T01:01:22;15.40;99.90
20560;DHT22;10438;51.454;6.718;2022-07-17T01:03:47;15.30;99.90
20560;DHT22;10438;51.454;6.718;2022-07-17T01:06:13;15.30;99.90
20560;DHT22;10438;51.454;6.718;2022-07-17T01:08:39;15.30;99.90
20560;DHT22;10438;51.454;6.718;2022-07-17T01:11:05;15.30;99.90
20560;DHT22;10438;51.454;6.718;2022-07-17T01:13:33;15.30;99.90
20560;DHT22;10438;51.454;6.718;2022-07-17T01:15:59;15.30;99.90
20560;DHT22;10438;51.454;6.718;2022-07-17T01:18:24;15.20;99.90
20560;DHT22;10438;51.454;6.718;2022-07-17T01:20:50;15.20;99.90
20560;DHT22;10438;51.454;6.718;2022-07-17T01:23:17;15.20;99.90
20560;DHT22;10438;51.454;6.718;2022-07-17T01:25:44;15.10;99.90
20560;DHT22;10438;51.454;6.718;2022-07-17T01:28:10;15.10;99.90
20560;DHT22;10438;51.454;6.718;2022-07-17T01:30:36;15.10;99.90
20560;DHT22;10438;51.454;6.718;2022-07-17T01:33:02;15.20;99.90
20560;DHT22;10438;51.454;6.718;2022-07-17T01:35:28;15.10;99.90
20560;DHT22;10438;51.454;6.718;2022-07-17T01:37:53;15.10;99.90
20560;DHT22;10438;51.454;6.718;2022-07-17T01:40:20;15.20;99.90
20560;DHT22;10438;51.454;6.718;2022-07-17T01:42:48;15.20;99.90
20560;DHT22;10438;51.454;6.718;2022-07-17T01:45:16;15.20;99.90
20560;DHT22;10438;51.454;6.718;2022-07-17T01:47:42;15.20;99.90
20560;DHT22;10438;51.454;6.718;2022-07-17T01:50:10;15.10;99.90
20560;DHT22;10438;51.454;6.718;2022-07-17T01:52:41;15.10;99.90
20560;DHT22;10438;51.454;6.718;2022-07-17T01:55:08;15.10;99.90
20560;DHT22;10438;51.454;6.718;2022-07-17T01:57:34;15.10;99.90
20560;DHT22;10438;51.454;6.718;2022-07-17T02:00:00;15.00;99.90
20560;DHT22;10438;51.454;6.718;2022-07-17T02:02:26;15.00;99.90
20560;DHT22;10438;51.454;6.718;2022-07-17T02:04:52;15.00;99.90
20560;DHT22;10438;51.454;6.718;2022-07-17T02:07:17;15.00;99.90
20560;DHT22;10438;51.454;6.718;2022-07-17T02:09:43;15.00;99.90
20560;DHT22;10438;51.454;6.718;2022-07-17T02:12:09;15.00;99.90
20560;DHT22;10438;51.454;6.718;2022-07-17T02:14:35;15.00;99.90
20560;DHT22;10438;51.454;6.718;2022-07-17T02:17:00;15.00;99.90
20560;DHT22;10438;51.454;6.718;2022-07-17T02:19:26;14.90;99.90
20560;DHT22;10438;51.454;6.718;2022-07-17T02:21:52;15.00;99.90
20560;DHT22;10438;51.454;6.718;2022-07-17T02:24:18;14.90;99.90
20560;DHT22;10438;51.454;6.718;2022-07-17T02:26:44;15.00;99.90
20560;DHT22;10438;51.454;6.718;2022-07-17T02:29:09;15.00;99.90
20560;DHT22;10438;51.454;6.718;2022-07-17T02:31:35;15.00;99.90
20560;DHT22;10438;51.454;6.718;2022-07-17T02:34:00;15.00;99.90
20560;DHT22;10438;51.454;6.718;2022-07-17T02:36:26;15.00;99.90
20560;DHT22;10438;51.454;6.718;2022-07-17T02:38:52;15.00;99.90
20560;DHT22;10438;51.454;6.718;2022-07-17T02:41:18;14.90;99.90
20560;DHT22;10438;51.454;6.718;2022-07-17T02:43:44;14.90;99.90
20560;DHT22;10438;51.454;6.718;2022-07-17T02:46:09;14.90;99.90
20560;DHT22;10438;51.454;6.718;2022-07-17T02:48:35;14.90;99.90
20560;DHT22;10438;51.454;6.718;2022-07-17T02:51:01;14.80;99.90
20560;DHT22;10438;51.454;6.718;2022-07-17T02:53:27;14.90;99.90
20560;DHT22;10438;51.454;6.718;2022-07-17T02:55:53;14.90;99.90
20560;DHT22;10438;51.454;6.718;2022-07-17T02:58:18;14.80;99.90
20560;DHT22;10438;51.454;6.718;2022-07-17T03:00:44;14.80;99.90
20560;DHT22;10438;51.454;6.718;2022-07-17T03:03:10;14.80;99.90
20560;DHT22;10438;51.454;6.718;2022-07-17T03:05:35;14.80;99.90
20560;DHT22;10438;51.454;6.718;2022-07-17T03:08:01;14.80;99.90
20560;DHT22;10438;51.454;6.718;2022-07-17T03:10:26;14.80;99.90
20560;DHT22;10438;51.454;6.718;2022-07-17T03:12:52;14.70;99.90
20560;DHT22;10438;51.454;6.718;2022-07-17T03:15:17;14.70;99.90
20560;DHT22;10438;51.454;6.718;2022-07-17T03:17:43;14.70;99.90
20560;DHT22;10438;51.454;6.718;2022-07-17T03:20:09;14.70;99.90
20560;DHT22;10438;51.454;6.718;2022-07-17T03:22:36;14.60;99.90
20560;DHT22;10438;51.454;6.718;2022-07-17T03:25:02;14.60;99.90
20560;DHT22;10438;51.454;6.718;2022-07-17T03:27:27;14.60;99.90
20560;DHT22;10438;51.454;6.718;2022-07-17T03:29:53;14.60;99.90
20560;DHT22;10438;51.454;6.718;2022-07-17T03:32:20;14.50;99.90
20560;DHT22;10438;51.454;6.718;2022-07-17T03:34:46;14.40;99.90
20560;DHT22;10438;51.454;6.718;2022-07-17T03:37:12;14.30;99.90
20560;DHT22;10438;51.454;6.718;2022-07-17T03:39:38;14.30;99.90
20560;DHT22;10438;51.454;6.718;2022-07-17T03:42:04;14.30;99.90
20560;DHT22;10438;51.454;6.718;2022-07-17T03:44:29;14.20;99.90
20560;DHT22;10438;51.454;6.718;2022-07-17T03:46:55;14.20;99.90
20560;DHT22;10438;51.454;6.718;2022-07-17T03:49:21;14.20;99.90
20560;DHT22;10438;51.454;6.718;2022-07-17T03:51:47;14.20;99.90
20560;DHT22;10438;51.454;6.718;2022-07-17T03:54:12;14.20;99.90
20560;DHT22;10438;51.454;6.718;2022-07-17T03:56:38;14.30;99.90
20560;DHT22;10438;51.454;6.718;2022-07-17T03:59:03;14.30;99.90
20560;DHT22;10438;51.454;6.718;2022-07-17T04:01:29;14.30;99.90
20560;DHT22;10438;51.454;6.718;2022-07-17T04:03:54;14.30;99.90
20560;DHT22;10438;51.454;6.718;2022-07-17T04:06:20;14.30;99.90
20560;DHT22;10438;51.454;6.718;2022-07-17T04:08:45;14.20;99.90
20560;DHT22;10438;51.454;6.718;2022-07-17T04:11:11;14.30;99.90
20560;DHT22;10438;51.454;6.718;2022-07-17T04:13:37;14.30;99.90
20560;DHT22;10438;51.454;6.718;2022-07-17T04:16:03;14.30;99.90
20560;DHT22;10438;51.454;6.718;2022-07-17T04:18:31;14.40;99.90
20560;DHT22;10438;51.454;6.718;2022-07-17T04:21:05;14.30;99.90
20560;DHT22;10438;51.454;6.718;2022-07-17T04:23:32;14.30;99.90
20560;DHT22;10438;51.454;6.718;2022-07-17T04:25:58;14.30;99.90
20560;DHT22;10438;51.454;6.718;2022-07-17T04:28:24;14.30;99.90
20560;DHT22;10438;51.454;6.718;2022-07-17T04:30:49;14.30;99.90
20560;DHT22;10438;51.454;6.718;2022-07-17T04:33:15;14.30;99.90
20560;DHT22;10438;51.454;6.718;2022-07-17T04:35:41;14.40;99.90
20560;DHT22;10438;51.454;6.718;2022-07-17T04:38:08;14.40;99.90
20560;DHT22;10438;51.454;6.718;2022-07-17T04:40:34;14.40;99.90
20560;DHT22;10438;51.454;6.718;2022-07-17T04:43:00;14.40;99.90
20560;DHT22;10438;51.454;6.718;2022-07-17T04:45:26;14.50;99.90
20560;DHT22;10438;51.454;6.718;2022-07-17T04:47:52;14.50;99.90
20560;DHT22;10438;51.454;6.718;2022-07-17T04:50:18;14.40;99.90
20560;DHT22;10438;51.454;6.718;2022-07-17T04:52:43;14.40;99.90
20560;DHT22;10438;51.454;6.718;2022-07-17T04:55:09;14.50;99.90
20560;DHT22;10438;51.454;6.718;2022-07-17T04:57:35;14.50;99.90
20560;DHT22;10438;51.454;6.718;2022-07-17T05:00:05;14.50;99.90
20560;DHT22;10438;51.454;6.718;2022-07-17T05:02:31;14.50;99.90
20560;DHT22;10438;51.454;6.718;2022-07-17T05:04:56;14.50;99.90
20560;DHT22;10438;51.454;6.718;2022-07-17T05:07:22;14.50;99.90
20560;DHT22;10438;51.454;6.718;2022-07-17T05:09:49;14.60;99.90
20560;DHT22;10438;51.454;6.718;2022-07-17T05:12:14;14.60;99.90
20560;DHT22;10438;51.454;6.718;2022-07-17T05:14:40;14.60;99.90
20560;DHT22;10438;51.454;6.718;2022-07-17T05:17:05;14.60;99.90
20560;DHT22;10438;51.454;6.718;2022-07-17T05:19:31;14.70;99.90
20560;DHT22;10438;51.454;6.718;2022-07-17T05:21:56;14.70;99.90
20560;DHT22;10438;51.454;6.718;2022-07-17T05:24:22;14.80;99.90
20560;DHT22;10438;51.454;6.718;2022-07-17T05:26:47;14.80;99.90
20560;DHT22;10438;51.454;6.718;2022-07-17T05:29:13;14.90;99.90
20560;DHT22;10438;51.454;6.718;2022-07-17T05:31:38;15.00;99.90
20560;DHT22;10438;51.454;6.718;2022-07-17T05:34:04;15.00;99.90
20560;DHT22;10438;51.454;6.718;2022-07-17T05:36:30;15.10;99.90
20560;DHT22;10438;51.454;6.718;2022-07-17T05:38:55;15.10;99.90
20560;DHT22;10438;51.454;6.718;2022-07-17T05:41:21;15.20;99.90
20560;DHT22;10438;51.454;6.718;2022-07-17T05:43:46;15.20;99.90
20560;DHT22;10438;51.454;6.718;2022-07-17T05:46:12;15.20;99.90
20560;DHT22;10438;51.454;6.718;2022-07-17T05:48:37;15.30;99.90
20560;DHT22;10438;51.454;6.718;2022-07-17T05:51:03;15.30;99.90
20560;DHT22;10438;51.454;6.718;2022-07-17T05:53:29;15.30;99.90
20560;DHT22;10438;51.454;6.718;2022-07-17T05:55:54;15.40;99.90
20560;DHT22;10438;51.454;6.718;2022-07-17T05:58:20;15.50;99.90
20560;DHT22;10438;51.454;6.718;2022-07-17T13:52:48;30.70;1.00
20560;DHT22;10438;51.454;6.718;2022-07-17T13:55:14;30.50;1.00
20560;DHT22;10438;51.454;6.718;2022-07-17T13:57:40;30.70;1.00
20560;DHT22;10438;51.454;6.718;2022-07-17T14:31:16;31.20;1.00
20560;DHT22;10438;51.454;6.718;2022-07-17T14:36:17;31.70;1.00
20560;DHT22;10438;51.454;6.718;2022-07-17T14:38:43;32.10;1.00
20560;DHT22;10438;51.454;6.718;2022-07-17T14:41:09;32.30;1.00
20560;DHT22;10438;51.454;6.718;2022-07-17T14:43:34;32.70;1.00
20560;DHT22;10438;51.454;6.718;2022-07-17T14:46:00;32.10;1.00
20560;DHT22;10438;51.454;6.718;2022-07-17T14:48:25;32.30;1.00
20560;DHT22;10438;51.454;6.718;2022-07-17T14:53:30;32.40;1.00
20560;DHT22;10438;51.454;6.718;2022-07-17T14:55:55;30.60;1.00
20560;DHT22;10438;51.454;6.718;2022-07-17T14:58:21;30.70;1.00
20560;DHT22;10438;51.454;6.718;2022-07-17T15:00:47;31.20;1.00
20560;DHT22;10438;51.454;6.718;2022-07-17T15:03:12;31.20;1.00
20560;DHT22;10438;51.454;6.718;2022-07-17T15:05:38;31.20;1.00
20560;DHT22;10438;51.454;6.718;2022-07-17T15:08:03;30.30;1.00
20560;DHT22;10438;51.454;6.718;2022-07-17T15:10:29;30.30;1.00
20560;DHT22;10438;51.454;6.718;2022-07-17T15:12:54;30.70;1.00
20560;DHT22;10438;51.454;6.718;2022-07-17T15:15:20;31.00;1.00
20560;DHT22;10438;51.454;6.718;2022-07-17T15:17:46;31.20;1.00
20560;DHT22;10438;51.454;6.718;2022-07-17T15:20:11;31.50;1.00
20560;DHT22;10438;51.454;6.718;2022-07-17T15:22:37;31.70;1.00
20560;DHT22;10438;51.454;6.718;2022-07-17T15:25:03;31.70;1.00
20560;DHT22;10438;51.454;6.718;2022-07-17T15:27:28;32.10;1.00
20560;DHT22;10438;51.454;6.718;2022-07-17T15:29:54;32.00;1.00
20560;DHT22;10438;51.454;6.718;2022-07-17T15:32:19;32.10;1.00
20560;DHT22;10438;51.454;6.718;2022-07-17T15:34:45;32.20;1.00
20560;DHT22;10438;51.454;6.718;2022-07-17T15:37:10;32.40;1.00
20560;DHT22;10438;51.454;6.718;2022-07-17T15:39:36;31.70;1.00
20560;DHT22;10438;51.454;6.718;2022-07-17T15:42:02;32.40;1.00
20560;DHT22;10438;51.454;6.718;2022-07-17T15:44:27;31.80;1.00
20560;DHT22;10438;51.454;6.718;2022-07-17T15:46:53;32.40;1.00
20560;DHT22;10438;51.454;6.718;2022-07-17T15:49:19;32.70;1.00
20560;DHT22;10438;51.454;6.718;2022-07-17T15:51:45;31.70;1.00
20560;DHT22;10438;51.454;6.718;2022-07-17T15:54:12;32.40;1.00
20560;DHT22;10438;51.454;6.718;2022-07-17T15:56:37;32.40;1.00
20560;DHT22;10438;51.454;6.718;2022-07-17T15:59:03;32.80;1.00
20560;DHT22;10438;51.454;6.718;2022-07-17T16:01:29;32.70;1.00
20560;DHT22;10438;51.454;6.718;2022-07-17T16:03:54;32.40;1.00
20560;DHT22;10438;51.454;6.718;2022-07-17T16:06:20;32.10;1.00
20560;DHT22;10438;51.454;6.718;2022-07-17T16:08:45;31.60;1.00
20560;DHT22;10438;51.454;6.718;2022-07-17T16:11:11;31.70;1.00
20560;DHT22;10438;51.454;6.718;2022-07-17T16:13:36;32.20;1.00
20560;DHT22;10438;51.454;6.718;2022-07-17T16:16:02;32.10;1.00
20560;DHT22;10438;51.454;6.718;2022-07-17T16:18:28;31.10;1.00
20560;DHT22;10438;51.454;6.718;2022-07-17T16:20:54;30.90;1.00
20560;DHT22;10438;51.454;6.718;2022-07-17T16:23:20;29.70;1.00
20560;DHT22;10438;51.454;6.718;2022-07-17T16:25:45;30.40;1.00
20560;DHT22;10438;51.454;6.718;2022-07-17T16:28:11;30.90;1.00
20560;DHT22;10438;51.454;6.718;2022-07-17T16:30:37;31.10;1.00
20560;DHT22;10438;51.454;6.718;2022-07-17T16:33:03;31.60;1.00
20560;DHT22;10438;51.454;6.718;2022-07-17T16:35:28;31.50;1.00
20560;DHT22;10438;51.454;6.718;2022-07-17T16:37:54;31.20;1.00
20560;DHT22;10438;51.454;6.718;2022-07-17T16:40:19;31.00;1.00
20560;DHT22;10438;51.454;6.718;2022-07-17T16:42:45;30.70;1.00
20560;DHT22;10438;51.454;6.718;2022-07-17T16:45:11;30.20;1.00
20560;DHT22;10438;51.454;6.718;2022-07-17T16:47:36;30.30;1.00
20560;DHT22;10438;51.454;6.718;2022-07-17T16:50:02;30.60;1.00
20560;DHT22;10438;51.454;6.718;2022-07-17T16:52:28;30.70;1.00
20560;DHT22;10438;51.454;6.718;2022-07-17T16:54:53;30.70;1.00
20560;DHT22;10438;51.454;6.718;2022-07-17T16:57:19;30.80;1.00
20560;DHT22;10438;51.454;6.718;2022-07-17T16:59:45;30.60;1.00
20560;DHT22;10438;51.454;6.718;2022-07-17T17:02:12;30.00;1.00
20560;DHT22;10438;51.454;6.718;2022-07-17T17:04:38;29.90;1.00
20560;DHT22;10438;51.454;6.718;2022-07-17T17:07:03;30.20;1.00
20560;DHT22;10438;51.454;6.718;2022-07-17T17:09:30;30.00;1.00
20560;DHT22;10438;51.454;6.718;2022-07-17T17:11:56;28.60;1.00
20560;DHT22;10438;51.454;6.718;2022-07-17T17:14:21;28.60;1.00
20560;DHT22;10438;51.454;6.718;2022-07-17T17:16:47;28.60;1.00
20560;DHT22;10438;51.454;6.718;2022-07-17T17:19:13;28.70;1.00
20560;DHT22;10438;51.454;6.718;2022-07-17T17:21:38;28.30;1.00
20560;DHT22;10438;51.454;6.718;2022-07-17T17:24:04;28.40;1.00
20560;DHT22;10438;51.454;6.718;2022-07-17T17:26:29;28.70;1.00
20560;DHT22;10438;51.454;6.718;2022-07-17T17:28:55;28.80;1.00
20560;DHT22;10438;51.454;6.718;2022-07-17T17:31:21;28.70;1.00
20560;DHT22;10438;51.454;6.718;2022-07-17T17:33:47;28.50;1.00
20560;DHT22;10438;51.454;6.718;2022-07-17T17:36:12;27.70;1.00
20560;DHT22;10438;51.454;6.718;2022-07-17T17:38:38;27.80;1.00
20560;DHT22;10438;51.454;6.718;2022-07-17T17:41:04;28.00;1.00
20560;DHT22;10438;51.454;6.718;2022-07-17T17:43:30;28.30;1.00
20560;DHT22;10438;51.454;6.718;2022-07-17T17:45:55;28.50;1.00
20560;DHT22;10438;51.454;6.718;2022-07-17T17:48:23;28.50;1.00
20560;DHT22;10438;51.454;6.718;2022-07-17T17:50:49;28.70;1.00
20560;DHT22;10438;51.454;6.718;2022-07-17T17:53:15;28.80;1.00
20560;DHT22;10438;51.454;6.718;2022-07-17T17:55:40;28.80;1.00
20560;DHT22;10438;51.454;6.718;2022-07-17T17:58:06;28.80;1.00
20560;DHT22;10438;51.454;6.718;2022-07-17T18:00:32;28.20;1.00
20560;DHT22;10438;51.454;6.718;2022-07-17T18:02:58;28.20;1.00
20560;DHT22;10438;51.454;6.718;2022-07-17T18:05:24;28.10;1.00
20560;DHT22;10438;51.454;6.718;2022-07-17T18:07:50;27.90;1.00
20560;DHT22;10438;51.454;6.718;2022-07-17T18:10:15;27.50;1.00
20560;DHT22;10438;51.454;6.718;2022-07-17T18:12:41;27.20;1.00
20560;DHT22;10438;51.454;6.718;2022-07-17T18:15:08;26.90;1.00
20560;DHT22;10438;51.454;6.718;2022-07-17T18:17:34;26.80;1.00
20560;DHT22;10438;51.454;6.718;2022-07-17T18:20:00;26.70;1.00
20560;DHT22;10438;51.454;6.718;2022-07-17T18:22:26;26.60;1.00
20560;DHT22;10438;51.454;6.718;2022-07-17T18:24:51;26.40;1.00
20560;DHT22;10438;51.454;6.718;2022-07-17T18:27:17;26.20;1.00
20560;DHT22;10438;51.454;6.718;2022-07-17T18:29:42;26.20;1.00
20560;DHT22;10438;51.454;6.718;2022-07-17T18:32:08;26.10;1.00
20560;DHT22;10438;51.454;6.718;2022-07-17T18:34:35;26.00;1.00
20560;DHT22;10438;51.454;6.718;2022-07-17T18:37:00;26.00;1.00
20560;DHT22;10438;51.454;6.718;2022-07-17T18:39:26;25.80;1.00
20560;DHT22;10438;51.454;6.718;2022-07-17T18:41:51;25.50;1.00
20560;DHT22;10438;51.454;6.718;2022-07-17T18:44:17;25.50;1.00
20560;DHT22;10438;51.454;6.718;2022-07-17T18:46:42;25.40;1.00
20560;DHT22;10438;51.454;6.718;2022-07-17T18:49:08;25.30;1.00
20560;DHT22;10438;51.454;6.718;2022-07-17T18:51:33;25.20;1.00
20560;DHT22;10438;51.454;6.718;2022-07-17T18:53:59;25.20;1.00
20560;DHT22;10438;51.454;6.718;2022-07-17T18:56:25;25.20;1.00
20560;DHT22;10438;51.454;6.718;2022-07-17T18:58:50;25.10;1.00
20560;DHT22;10438;51.454;6.718;2022-07-17T19:01:16;24.90;1.00
20560;DHT22;10438;51.454;6.718;2022-07-17T19:03:41;24.70;1.00
20560;DHT22;10438;51.454;6.718;2022-07-17T19:06:08;24.70;1.00
20560;DHT22;10438;51.454;6.718;2022-07-17T19:08:34;24.60;1.00
20560;DHT22;10438;51.454;6.718;2022-07-17T19:11:00;24.60;1.00
20560;DHT22;10438;51.454;6.718;2022-07-17T19:13:26;24.40;1.00
20560;DHT22;10438;51.454;6.718;2022-07-17T19:15:52;24.30;1.00
20560;DHT22;10438;51.454;6.718;2022-07-17T19:18:17;24.30;1.00
20560;DHT22;10438;51.454;6.718;2022-07-17T19:20:43;24.20;1.00
20560;DHT22;10438;51.454;6.718;2022-07-17T19:23:08;24.10;1.00
20560;DHT22;10438;51.454;6.718;2022-07-17T19:25:35;24.00;1.00
20560;DHT22;10438;51.454;6.718;2022-07-17T19:28:02;24.00;1.00
20560;DHT22;10438;51.454;6.718;2022-07-17T19:30:28;23.90;1.00
20560;DHT22;10438;51.454;6.718;2022-07-17T19:32:55;23.80;1.00
20560;DHT22;10438;51.454;6.718;2022-07-17T19:35:21;23.70;1.00
20560;DHT22;10438;51.454;6.718;2022-07-17T19:37:47;23.60;1.00
20560;DHT22;10438;51.454;6.718;2022-07-17T19:40:12;23.60;1.00
20560;DHT22;10438;51.454;6.718;2022-07-17T19:42:38;23.50;1.00
20560;DHT22;10438;51.454;6.718;2022-07-17T19:45:04;23.40;1.00
20560;DHT22;10438;51.454;6.718;2022-07-17T19:47:30;23.40;1.00
20560;DHT22;10438;51.454;6.718;2022-07-17T19:49:59;23.30;1.00
20560;DHT22;10438;51.454;6.718;2022-07-17T19:52:25;23.20;1.00
20560;DHT22;10438;51.454;6.718;2022-07-17T19:54:51;23.10;1.00
20560;DHT22;10438;51.454;6.718;2022-07-17T19:57:17;23.10;1.00
20560;DHT22;10438;51.454;6.718;2022-07-17T19:59:42;23.00;1.70
20560;DHT22;10438;51.454;6.718;2022-07-17T20:02:08;22.90;4.10
20560;DHT22;10438;51.454;6.718;2022-07-17T20:04:34;22.80;3.20
20560;DHT22;10438;51.454;6.718;2022-07-17T20:07:00;22.80;2.30
20560;DHT22;10438;51.454;6.718;2022-07-17T20:09:26;22.70;2.50
20560;DHT22;10438;51.454;6.718;2022-07-17T20:11:51;22.70;2.80
20560;DHT22;10438;51.454;6.718;2022-07-17T20:14:17;22.70;1.80
20560;DHT22;10438;51.454;6.718;2022-07-17T20:16:44;22.60;2.20
20560;DHT22;10438;51.454;6.718;2022-07-17T20:19:11;22.60;2.90
20560;DHT22;10438;51.454;6.718;2022-07-17T20:21:37;22.50;3.60
20560;DHT22;10438;51.454;6.718;2022-07-17T20:24:03;22.50;3.50
20560;DHT22;10438;51.454;6.718;2022-07-17T20:26:28;22.40;3.70
20560;DHT22;10438;51.454;6.718;2022-07-17T20:28:54;22.40;4.00
20560;DHT22;10438;51.454;6.718;2022-07-17T20:31:23;22.30;4.50
20560;DHT22;10438;51.454;6.718;2022-07-17T20:33:49;22.30;4.10
20560;DHT22;10438;51.454;6.718;2022-07-17T20:36:15;22.30;2.90
20560;DHT22;10438;51.454;6.718;2022-07-17T20:38:41;22.30;3.10
20560;DHT22;10438;51.454;6.718;2022-07-17T20:41:06;22.30;3.00
20560;DHT22;10438;51.454;6.718;2022-07-17T20:43:32;22.30;3.40
20560;DHT22;10438;51.454;6.718;2022-07-17T20:45:58;22.30;2.60
20560;DHT22;10438;51.454;6.718;2022-07-17T20:48:23;22.20;4.00
20560;DHT22;10438;51.454;6.718;2022-07-17T20:50:50;22.20;4.10
20560;DHT22;10438;51.454;6.718;2022-07-17T20:53:16;22.20;4.50
20560;DHT22;10438;51.454;6.718;2022-07-17T20:55:42;22.10;5.60
20560;DHT22;10438;51.454;6.718;2022-07-17T20:58:08;22.10;6.60
20560;DHT22;10438;51.454;6.718;2022-07-17T21:00:35;22.00;6.70
20560;DHT22;10438;51.454;6.718;2022-07-17T21:03:02;22.00;7.70
20560;DHT22;10438;51.454;6.718;2022-07-17T21:05:28;22.00;5.90
20560;DHT22;10438;51.454;6.718;2022-07-17T21:07:53;22.00;5.10
20560;DHT22;10438;51.454;6.718;2022-07-17T21:10:19;22.00;6.00
20560;DHT22;10438;51.454;6.718;2022-07-17T21:12:45;22.00;5.30
20560;DHT22;10438;51.454;6.718;2022-07-17T21:15:11;22.00;6.10
20560;DHT22;10438;51.454;6.718;2022-07-17T21:17:36;21.90;6.00
20560;DHT22;10438;51.454;6.718;2022-07-17T21:20:03;21.90;6.60
20560;DHT22;10438;51.454;6.718;2022-07-17T21:22:29;21.90;6.50
20560;DHT22;10438;51.454;6.718;2022-07-17T21:24:54;21.80;6.50
20560;DHT22;10438;51.454;6.718;2022-07-17T21:27:21;21.80;6.90
20560;DHT22;10438;51.454;6.718;2022-07-17T21:29:47;21.80;7.40
20560;DHT22;10438;51.454;6.718;2022-07-17T21:32:12;21.70;7.80
20560;DHT22;10438;51.454;6.718;2022-07-17T21:34:38;21.70;7.60
20560;DHT22;10438;51.454;6.718;2022-07-17T21:37:03;21.60;8.20
20560;DHT22;10438;51.454;6.718;2022-07-17T21:39:29;21.50;10.20
20560;DHT22;10438;51.454;6.718;2022-07-17T21:41:54;21.50;10.70
20560;DHT22;10438;51.454;6.718;2022-07-17T21:44:20;21.40;10.20
20560;DHT22;10438;51.454;6.718;2022-07-17T21:46:45;21.30;11.60
20560;DHT22;10438;51.454;6.718;2022-07-17T21:49:11;21.30;12.80
20560;DHT22;10438;51.454;6.718;2022-07-17T21:51:37;21.20;13.00
20560;DHT22;10438;51.454;6.718;2022-07-17T21:54:02;21.20;12.50
20560;DHT22;10438;51.454;6.718;2022-07-17T21:56:28;21.10;12.70
20560;DHT22;10438;51.454;6.718;2022-07-17T21:58:54;21.10;12.70
20560;DHT22;10438;51.454;6.718;2022-07-17T22:01:19;21.10;14.40
20560;DHT22;10438;51.454;6.718;2022-07-17T22:03:45;21.00;13.10
20560;DHT22;10438;51.454;6.718;2022-07-17T22:06:11;21.00;15.10
20560;DHT22;10438;51.454;6.718;2022-07-17T22:08:37;20.90;15.10
20560;DHT22;10438;51.454;6.718;2022-07-17T22:11:03;20.80;21.70
20560;DHT22;10438;51.454;6.718;2022-07-17T22:13:28;20.80;16.20
20560;DHT22;10438;51.454;6.718;2022-07-17T22:15:54;20.70;17.80
20560;DHT22;10438;51.454;6.718;2022-07-17T22:18:20;20.70;17.50
20560;DHT22;10438;51.454;6.718;2022-07-17T22:20:47;20.70;20.60
20560;DHT22;10438;51.454;6.718;2022-07-17T22:23:13;20.60;24.60
20560;DHT22;10438;51.454;6.718;2022-07-17T22:25:38;20.50;30.00
20560;DHT22;10438;51.454;6.718;2022-07-17T22:28:04;20.40;31.70
20560;DHT22;10438;51.454;6.718;2022-07-17T22:30:31;20.30;37.10
20560;DHT22;10438;51.454;6.718;2022-07-17T22:32:57;20.20;38.20
20560;DHT22;10438;51.454;6.718;2022-07-17T22:35:22;20.20;36.20
20560;DHT22;10438;51.454;6.718;2022-07-17T22:37:48;20.10;44.50
20560;DHT22;10438;51.454;6.718;2022-07-17T22:40:13;20.10;45.80
20560;DHT22;10438;51.454;6.718;2022-07-17T22:42:39;20.10;41.80
20560;DHT22;10438;51.454;6.718;2022-07-17T22:45:05;20.10;42.50
20560;DHT22;10438;51.454;6.718;2022-07-17T22:47:31;20.10;41.30
20560;DHT22;10438;51.454;6.718;2022-07-17T22:49:56;20.10;44.50
20560;DHT22;10438;51.454;6.718;2022-07-17T22:52:22;20.10;43.60
20560;DHT22;10438;51.454;6.718;2022-07-17T22:54:47;20.10;44.00
20560;DHT22;10438;51.454;6.718;2022-07-17T22:57:13;20.10;48.60
20560;DHT22;10438;51.454;6.718;2022-07-17T22:59:39;20.00;46.40
20560;DHT22;10438;51.454;6.718;2022-07-17T23:02:05;20.00;47.90
20560;DHT22;10438;51.454;6.718;2022-07-17T23:04:31;19.90;47.10
20560;DHT22;10438;51.454;6.718;2022-07-17T23:06:56;19.90;43.60
20560;DHT22;10438;51.454;6.718;2022-07-17T23:09:22;19.90;45.00
20560;DHT22;10438;51.454;6.718;2022-07-17T23:11:48;19.80;58.50
20560;DHT22;10438;51.454;6.718;2022-07-17T23:14:15;19.80;49.70
20560;DHT22;10438;51.454;6.718;2022-07-17T23:16:41;19.60;57.80
20560;DHT22;10438;51.454;6.718;2022-07-17T23:19:06;19.60;58.80
20560;DHT22;10438;51.454;6.718;2022-07-17T23:21:32;19.50;57.30
20560;DHT22;10438;51.454;6.718;2022-07-17T23:23:57;19.40;64.70
20560;DHT22;10438;51.454;6.718;2022-07-17T23:26:23;19.40;58.70
20560;DHT22;10438;51.454;6.718;2022-07-17T23:28:49;19.30;67.00
20560;DHT22;10438;51.454;6.718;2022-07-17T23:31:17;19.30;67.20
20560;DHT22;10438;51.454;6.718;2022-07-17T23:33:42;19.20;75.30
20560;DHT22;10438;51.454;6.718;2022-07-17T23:36:08;19.20;72.50
20560;DHT22;10438;51.454;6.718;2022-07-17T23:38:33;19.10;71.80
20560;DHT22;10438;51.454;6.718;2022-07-17T23:40:59;19.10;71.90
20560;DHT22;10438;51.454;6.718;2022-07-17T23:43:24;19.10;67.20
20560;DHT22;10438;51.454;6.718;2022-07-17T23:45:50;19.00;66.00
20560;DHT22;10438;51.454;6.718;2022-07-17T23:48:16;19.00;71.50
20560;DHT22;10438;51.454;6.718;2022-07-17T23:50:41;19.00;70.90
20560;DHT22;10438;51.454;6.718;2022-07-17T23:53:07;18.90;84.80
20560;DHT22;10438;51.454;6.718;2022-07-17T23:55:33;18.90;74.50